createdAt,value
2017-08-30T00:00:10.913Z,932.68
2017-08-30T00:00:39.086Z,932.65
2017-08-30T00:01:07.145Z,932.7
2017-08-30T00:01:35.406Z,932.67
2017-08-30T00:02:03.441Z,932.71
2017-08-30T00:02:31.594Z,932.63
2017-08-30T00:02:59.745Z,932.64
2017-08-30T00:03:27.879Z,932.61
2017-08-30T00:03:56.285Z,932.62
2017-08-30T00:04:24.495Z,932.63
2017-08-30T00:04:52.715Z,932.63
2017-08-30T00:05:20.933Z,932.62
2017-08-30T00:05:49.198Z,932.64
2017-08-30T00:06:17.415Z,932.63
2017-08-30T00:06:45.665Z,932.62
2017-08-30T00:07:13.820Z,932.62
2017-08-30T00:07:42.076Z,932.61
2017-08-30T00:08:10.322Z,932.63
2017-08-30T00:08:38.425Z,932.61
2017-08-30T00:09:06.603Z,932.62
2017-08-30T00:09:34.671Z,932.67
2017-08-30T00:10:02.953Z,932.67
2017-08-30T00:10:31.167Z,932.66
2017-08-30T00:10:59.315Z,932.67
2017-08-30T00:11:27.425Z,932.69
2017-08-30T00:11:55.467Z,932.71
2017-08-30T00:12:23.516Z,932.7
2017-08-30T00:12:51.746Z,932.71
2017-08-30T00:13:20.016Z,932.71
2017-08-30T00:13:48.369Z,932.67
2017-08-30T00:14:16.491Z,932.68
2017-08-30T00:14:44.701Z,932.7
2017-08-30T00:15:12.768Z,932.7
2017-08-30T00:15:40.804Z,932.69
2017-08-30T00:16:09.061Z,932.68
2017-08-30T00:16:37.303Z,932.71
2017-08-30T00:17:05.519Z,932.68
2017-08-30T00:17:33.641Z,932.7
2017-08-30T00:18:01.885Z,932.7
2017-08-30T00:18:30.166Z,932.73
2017-08-30T00:18:58.420Z,932.7
2017-08-30T00:19:26.690Z,932.67
2017-08-30T00:19:54.881Z,932.68
2017-08-30T00:20:23.046Z,932.72
2017-08-30T00:20:51.204Z,932.72
2017-08-30T00:21:19.396Z,932.69
2017-08-30T00:21:47.652Z,932.71
2017-08-30T00:22:15.865Z,932.69
2017-08-30T00:22:44.006Z,932.71
2017-08-30T00:23:12.267Z,932.73
2017-08-30T00:23:40.386Z,932.75
2017-08-30T00:24:08.626Z,932.76
2017-08-30T00:24:36.768Z,932.77
2017-08-30T00:25:04.783Z,932.79
2017-08-30T00:25:33.061Z,932.79
2017-08-30T00:26:01.350Z,932.8
2017-08-30T00:26:29.499Z,932.78
2017-08-30T00:26:57.781Z,932.84
2017-08-30T00:27:26.005Z,932.82
2017-08-30T00:27:54.211Z,932.85
2017-08-30T00:28:22.376Z,932.83
2017-08-30T00:28:50.555Z,932.87
2017-08-30T00:29:18.868Z,932.83
2017-08-30T00:29:47.130Z,932.85
2017-08-30T00:30:15.385Z,932.85
2017-08-30T00:30:43.498Z,932.84
2017-08-30T00:31:11.528Z,932.88
2017-08-30T00:31:39.729Z,932.89
2017-08-30T00:32:07.940Z,932.89
2017-08-30T00:32:36.089Z,932.89
2017-08-30T00:33:04.139Z,932.88
2017-08-30T00:33:32.285Z,932.92
2017-08-30T00:34:00.502Z,932.91
2017-08-30T00:34:28.725Z,932.94
2017-08-30T00:34:56.870Z,932.91
2017-08-30T00:35:24.882Z,932.93
2017-08-30T00:35:53.126Z,932.95
2017-08-30T00:36:21.233Z,932.96
2017-08-30T00:36:49.406Z,932.96
2017-08-30T00:37:17.649Z,932.93
2017-08-30T00:37:45.854Z,932.95
2017-08-30T00:38:13.847Z,932.95
2017-08-30T00:38:42.097Z,932.95
2017-08-30T00:39:10.433Z,932.92
2017-08-30T00:39:38.570Z,932.97
2017-08-30T00:40:06.678Z,932.92
2017-08-30T00:40:34.921Z,932.94
2017-08-30T00:41:03.231Z,932.96
2017-08-30T00:41:31.375Z,932.93
2017-08-30T00:41:59.567Z,932.9
2017-08-30T00:42:27.704Z,932.9
2017-08-30T00:42:55.772Z,932.93
2017-08-30T00:43:23.980Z,932.92
2017-08-30T00:43:52.159Z,932.92
2017-08-30T00:44:20.329Z,932.91
2017-08-30T00:44:48.547Z,932.91
2017-08-30T00:45:16.651Z,932.92
2017-08-30T00:45:44.790Z,932.87
2017-08-30T00:46:12.711Z,932.89
2017-08-30T00:46:40.882Z,932.92
2017-08-30T00:47:09.045Z,932.91
2017-08-30T00:47:37.171Z,932.92
2017-08-30T00:48:05.192Z,932.89
2017-08-30T00:48:33.432Z,932.9
2017-08-30T00:49:01.634Z,932.93
2017-08-30T00:49:29.951Z,932.94
2017-08-30T00:49:57.962Z,932.95
2017-08-30T00:50:26.213Z,932.95
2017-08-30T00:50:54.385Z,932.98
2017-08-30T00:51:22.557Z,932.94
2017-08-30T00:51:50.608Z,932.96
2017-08-30T00:52:18.717Z,932.94
2017-08-30T00:52:46.954Z,932.95
2017-08-30T00:53:15.051Z,932.96
2017-08-30T00:53:43.305Z,932.96
2017-08-30T00:54:11.480Z,932.97
2017-08-30T00:54:39.610Z,932.97
2017-08-30T00:55:07.822Z,932.97
2017-08-30T00:55:35.938Z,932.96
2017-08-30T00:56:04.096Z,932.93
2017-08-30T00:56:32.238Z,932.96
2017-08-30T00:57:00.342Z,932.97
2017-08-30T00:57:28.549Z,932.95
2017-08-30T00:57:56.701Z,932.98
2017-08-30T00:58:24.945Z,932.96
2017-08-30T00:58:53.075Z,932.94
2017-08-30T00:59:21.229Z,932.98
2017-08-30T00:59:49.584Z,932.96
2017-08-30T01:00:17.880Z,932.96
2017-08-30T01:00:46.172Z,932.93
2017-08-30T01:01:14.426Z,932.94
2017-08-30T01:01:42.648Z,932.98
2017-08-30T01:02:10.831Z,932.98
2017-08-30T01:02:39.111Z,932.93
2017-08-30T01:03:07.351Z,932.98
2017-08-30T01:03:35.561Z,932.96
2017-08-30T01:04:03.724Z,932.96
2017-08-30T01:04:31.918Z,933
2017-08-30T01:05:00.165Z,932.96
2017-08-30T01:05:28.260Z,933
2017-08-30T01:05:56.516Z,933.01
2017-08-30T01:06:24.663Z,933
2017-08-30T01:06:52.826Z,932.99
2017-08-30T01:07:20.962Z,932.95
2017-08-30T01:07:49.187Z,932.95
2017-08-30T01:08:17.419Z,932.97
2017-08-30T01:08:45.632Z,932.95
2017-08-30T01:09:13.783Z,932.97
2017-08-30T01:09:42.090Z,932.92
2017-08-30T01:10:10.144Z,932.94
2017-08-30T01:10:38.154Z,932.93
2017-08-30T01:11:06.379Z,932.92
2017-08-30T01:11:34.493Z,932.91
2017-08-30T01:12:02.740Z,932.92
2017-08-30T01:12:31.001Z,932.9
2017-08-30T01:12:59.161Z,932.95
2017-08-30T01:13:27.332Z,932.92
2017-08-30T01:13:55.375Z,932.94
2017-08-30T01:14:23.614Z,932.9
2017-08-30T01:14:51.385Z,932.91
2017-08-30T01:15:19.545Z,932.9
2017-08-30T01:15:47.821Z,932.93
2017-08-30T01:16:15.962Z,932.91
2017-08-30T01:16:44.066Z,932.94
2017-08-30T01:17:12.292Z,932.92
2017-08-30T01:17:40.538Z,932.96
2017-08-30T01:18:08.554Z,932.92
2017-08-30T01:18:36.657Z,932.92
2017-08-30T01:19:04.769Z,932.92
2017-08-30T01:19:33.047Z,932.96
2017-08-30T01:20:01.295Z,932.95
2017-08-30T01:20:29.495Z,932.92
2017-08-30T01:20:57.725Z,932.9
2017-08-30T01:21:25.943Z,932.92
2017-08-30T01:21:54.046Z,932.92
2017-08-30T01:22:22.300Z,932.92
2017-08-30T01:22:50.449Z,932.88
2017-08-30T01:23:18.634Z,932.91
2017-08-30T01:23:46.749Z,932.92
2017-08-30T01:24:14.882Z,932.91
2017-08-30T01:24:43.025Z,932.92
2017-08-30T01:25:11.139Z,932.93
2017-08-30T01:25:39.214Z,932.93
2017-08-30T01:26:07.381Z,932.92
2017-08-30T01:26:35.593Z,932.95
2017-08-30T01:27:03.730Z,932.9
2017-08-30T01:27:31.770Z,932.91
2017-08-30T01:27:59.920Z,932.93
2017-08-30T01:28:28.168Z,932.9
2017-08-30T01:28:56.339Z,932.91
2017-08-30T01:29:24.398Z,932.91
2017-08-30T01:29:52.723Z,932.93
2017-08-30T01:30:20.964Z,932.92
2017-08-30T01:30:49.089Z,932.9
2017-08-30T01:31:17.306Z,932.9
2017-08-30T01:31:45.443Z,932.91
2017-08-30T01:32:13.718Z,932.88
2017-08-30T01:32:41.934Z,932.91
2017-08-30T01:33:10.070Z,932.9
2017-08-30T01:33:38.175Z,932.92
2017-08-30T01:34:06.448Z,932.9
2017-08-30T01:34:34.749Z,932.88
2017-08-30T01:35:03.169Z,932.87
2017-08-30T01:35:31.399Z,932.89
2017-08-30T01:35:59.617Z,932.88
2017-08-30T01:36:27.706Z,932.85
2017-08-30T01:36:55.822Z,932.86
2017-08-30T01:37:23.960Z,932.88
2017-08-30T01:37:52.267Z,932.86
2017-08-30T01:38:20.472Z,932.86
2017-08-30T01:38:48.698Z,932.86
2017-08-30T01:39:16.842Z,932.83
2017-08-30T01:39:45.110Z,932.89
2017-08-30T01:40:13.437Z,932.85
2017-08-30T01:40:41.564Z,932.84
2017-08-30T01:41:09.709Z,932.84
2017-08-30T01:41:37.906Z,932.88
2017-08-30T01:42:06.085Z,932.88
2017-08-30T01:42:34.232Z,932.83
2017-08-30T01:43:02.393Z,932.89
2017-08-30T01:43:30.529Z,932.87
2017-08-30T01:43:58.647Z,932.87
2017-08-30T01:44:26.643Z,932.87
2017-08-30T01:44:54.835Z,932.9
2017-08-30T01:45:23.150Z,932.86
2017-08-30T01:45:51.323Z,932.86
2017-08-30T01:46:19.546Z,932.86
2017-08-30T01:46:47.815Z,932.86
2017-08-30T01:47:15.947Z,932.86
2017-08-30T01:47:44.068Z,932.86
2017-08-30T01:48:12.279Z,932.85
2017-08-30T01:48:40.328Z,932.86
2017-08-30T01:49:08.554Z,932.84
2017-08-30T01:49:36.670Z,932.85
2017-08-30T01:50:04.928Z,932.85
2017-08-30T01:50:33.164Z,932.85
2017-08-30T01:51:01.334Z,932.86
2017-08-30T01:51:29.565Z,932.84
2017-08-30T01:51:57.823Z,932.83
2017-08-30T01:52:26.058Z,932.83
2017-08-30T01:52:54.335Z,932.83
2017-08-30T01:53:22.398Z,932.81
2017-08-30T01:53:50.586Z,932.84
2017-08-30T01:54:18.887Z,932.82
2017-08-30T01:54:46.928Z,932.82
2017-08-30T01:55:15.172Z,932.85
2017-08-30T01:55:43.538Z,932.84
2017-08-30T01:56:11.699Z,932.85
2017-08-30T01:56:39.928Z,932.83
2017-08-30T01:57:08.175Z,932.81
2017-08-30T01:57:36.264Z,932.82
2017-08-30T01:58:04.399Z,932.82
2017-08-30T01:58:32.564Z,932.82
2017-08-30T01:59:00.850Z,932.8
2017-08-30T01:59:29.034Z,932.79
2017-08-30T01:59:57.290Z,932.78
2017-08-30T02:00:25.526Z,932.77
2017-08-30T02:00:53.702Z,932.8
2017-08-30T02:01:21.954Z,932.78
2017-08-30T02:01:50.097Z,932.75
2017-08-30T02:02:18.381Z,932.75
2017-08-30T02:02:46.633Z,932.77
2017-08-30T02:03:14.848Z,932.76
2017-08-30T02:03:43.131Z,932.75
2017-08-30T02:04:11.258Z,932.75
2017-08-30T02:04:39.428Z,932.71
2017-08-30T02:05:07.614Z,932.72
2017-08-30T02:05:35.826Z,932.74
2017-08-30T02:06:03.955Z,932.72
2017-08-30T02:06:32.225Z,932.71
2017-08-30T02:07:00.477Z,932.68
2017-08-30T02:07:28.628Z,932.72
2017-08-30T02:07:56.570Z,932.75
2017-08-30T02:08:24.754Z,932.72
2017-08-30T02:08:52.805Z,932.75
2017-08-30T02:09:20.948Z,932.72
2017-08-30T02:09:49.103Z,932.76
2017-08-30T02:10:17.378Z,932.74
2017-08-30T02:10:45.633Z,932.75
2017-08-30T02:11:13.859Z,932.74
2017-08-30T02:11:41.891Z,932.74
2017-08-30T02:12:10.022Z,932.75
2017-08-30T02:12:38.239Z,932.77
2017-08-30T02:13:06.476Z,932.76
2017-08-30T02:13:34.648Z,932.74
2017-08-30T02:14:02.896Z,932.75
2017-08-30T02:14:31.093Z,932.74
2017-08-30T02:14:59.337Z,932.75
2017-08-30T02:15:27.365Z,932.77
2017-08-30T02:15:55.736Z,932.76
2017-08-30T02:16:23.856Z,932.78
2017-08-30T02:16:51.896Z,932.77
2017-08-30T02:17:20.121Z,932.79
2017-08-30T02:17:48.144Z,932.76
2017-08-30T02:18:16.396Z,932.78
2017-08-30T02:18:44.631Z,932.78
2017-08-30T02:19:12.568Z,932.77
2017-08-30T02:19:40.746Z,932.79
2017-08-30T02:20:08.986Z,932.78
2017-08-30T02:20:37.304Z,932.78
2017-08-30T02:21:05.422Z,932.8
2017-08-30T02:21:33.626Z,932.78
2017-08-30T02:22:01.773Z,932.78
2017-08-30T02:22:30.033Z,932.77
2017-08-30T02:22:58.331Z,932.8
2017-08-30T02:23:26.577Z,932.8
2017-08-30T02:23:54.878Z,932.81
2017-08-30T02:24:23.210Z,932.78
2017-08-30T02:24:51.457Z,932.77
2017-08-30T02:25:19.709Z,932.76
2017-08-30T02:25:47.944Z,932.77
2017-08-30T02:26:16.197Z,932.74
2017-08-30T02:26:44.381Z,932.76
2017-08-30T02:27:12.523Z,932.75
2017-08-30T02:27:40.814Z,932.74
2017-08-30T02:28:09.033Z,932.75
2017-08-30T02:28:37.260Z,932.72
2017-08-30T02:29:05.479Z,932.72
2017-08-30T02:29:33.737Z,932.72
2017-08-30T02:30:01.921Z,932.73
2017-08-30T02:30:30.135Z,932.71
2017-08-30T02:30:58.271Z,932.75
2017-08-30T02:31:26.275Z,932.72
2017-08-30T02:31:54.368Z,932.7
2017-08-30T02:32:22.608Z,932.69
2017-08-30T02:32:50.753Z,932.7
2017-08-30T02:33:18.910Z,932.71
2017-08-30T02:33:47.067Z,932.72
2017-08-30T02:34:15.323Z,932.7
2017-08-30T02:34:43.458Z,932.7
2017-08-30T02:35:11.680Z,932.69
2017-08-30T02:35:39.869Z,932.7
2017-08-30T02:36:08.086Z,932.7
2017-08-30T02:36:36.226Z,932.7
2017-08-30T02:37:04.219Z,932.72
2017-08-30T02:37:32.255Z,932.7
2017-08-30T02:38:00.381Z,932.71
2017-08-30T02:38:28.599Z,932.7
2017-08-30T02:38:56.849Z,932.7
2017-08-30T02:39:25.072Z,932.66
2017-08-30T02:39:53.324Z,932.69
2017-08-30T02:40:21.510Z,932.66
2017-08-30T02:40:49.657Z,932.64
2017-08-30T02:41:17.996Z,932.67
2017-08-30T02:41:46.241Z,932.67
2017-08-30T02:42:14.471Z,932.65
2017-08-30T02:42:42.736Z,932.62
2017-08-30T02:43:10.966Z,932.66
2017-08-30T02:43:39.213Z,932.62
2017-08-30T02:44:07.480Z,932.63
2017-08-30T02:44:35.610Z,932.6
2017-08-30T02:45:03.767Z,932.63
2017-08-30T02:45:31.915Z,932.62
2017-08-30T02:46:00.312Z,932.62
2017-08-30T02:46:28.439Z,932.64
2017-08-30T02:46:56.576Z,932.61
2017-08-30T02:47:24.841Z,932.63
2017-08-30T02:47:53.012Z,932.61
2017-08-30T02:48:21.264Z,932.61
2017-08-30T02:48:49.428Z,932.6
2017-08-30T02:49:17.565Z,932.6
2017-08-30T02:49:45.779Z,932.59
2017-08-30T02:50:14.016Z,932.57
2017-08-30T02:50:42.256Z,932.62
2017-08-30T02:51:10.547Z,932.6
2017-08-30T02:51:38.665Z,932.61
2017-08-30T02:52:06.930Z,932.56
2017-08-30T02:52:35.162Z,932.58
2017-08-30T02:53:03.439Z,932.58
2017-08-30T02:53:31.538Z,932.59
2017-08-30T02:53:59.708Z,932.63
2017-08-30T02:54:27.908Z,932.58
2017-08-30T02:54:56.110Z,932.6
2017-08-30T02:55:24.207Z,932.59
2017-08-30T02:55:52.317Z,932.6
2017-08-30T02:56:20.540Z,932.6
2017-08-30T02:56:48.782Z,932.6
2017-08-30T02:57:16.998Z,932.6
2017-08-30T02:57:45.101Z,932.56
2017-08-30T02:58:13.237Z,932.56
2017-08-30T02:58:41.514Z,932.54
2017-08-30T02:59:09.740Z,932.55
2017-08-30T02:59:37.897Z,932.52
2017-08-30T03:00:06.047Z,932.56
2017-08-30T03:00:34.019Z,932.59
2017-08-30T03:01:02.043Z,932.54
2017-08-30T03:01:30.444Z,932.53
2017-08-30T03:01:58.704Z,932.56
2017-08-30T03:02:26.855Z,932.55
2017-08-30T03:02:55.102Z,932.55
2017-08-30T03:03:23.204Z,932.54
2017-08-30T03:03:51.429Z,932.56
2017-08-30T03:04:19.511Z,932.55
2017-08-30T03:04:47.668Z,932.55
2017-08-30T03:05:15.859Z,932.6
2017-08-30T03:05:44.042Z,932.56
2017-08-30T03:06:12.306Z,932.58
2017-08-30T03:06:40.637Z,932.6
2017-08-30T03:07:08.872Z,932.57
2017-08-30T03:07:37.141Z,932.56
2017-08-30T03:08:05.312Z,932.52
2017-08-30T03:08:33.463Z,932.54
2017-08-30T03:09:01.583Z,932.57
2017-08-30T03:09:29.650Z,932.56
2017-08-30T03:09:57.769Z,932.53
2017-08-30T03:10:25.917Z,932.53
2017-08-30T03:10:53.862Z,932.49
2017-08-30T03:11:22.101Z,932.51
2017-08-30T03:11:50.267Z,932.52
2017-08-30T03:12:18.417Z,932.55
2017-08-30T03:12:46.640Z,932.51
2017-08-30T03:13:14.852Z,932.54
2017-08-30T03:13:43.001Z,932.52
2017-08-30T03:14:11.152Z,932.54
2017-08-30T03:14:39.377Z,932.52
2017-08-30T03:15:07.661Z,932.51
2017-08-30T03:15:35.769Z,932.52
2017-08-30T03:16:03.941Z,932.49
2017-08-30T03:16:32.254Z,932.5
2017-08-30T03:17:00.354Z,932.48
2017-08-30T03:17:28.570Z,932.5
2017-08-30T03:17:56.832Z,932.49
2017-08-30T03:18:24.859Z,932.51
2017-08-30T03:18:53.125Z,932.5
2017-08-30T03:19:21.283Z,932.48
2017-08-30T03:19:49.519Z,932.49
2017-08-30T03:20:17.632Z,932.48
2017-08-30T03:20:45.756Z,932.5
2017-08-30T03:21:13.786Z,932.49
2017-08-30T03:21:42.064Z,932.49
2017-08-30T03:22:10.189Z,932.46
2017-08-30T03:22:38.316Z,932.49
2017-08-30T03:23:06.405Z,932.48
2017-08-30T03:23:34.668Z,932.46
2017-08-30T03:24:02.935Z,932.48
2017-08-30T03:24:31.177Z,932.47
2017-08-30T03:24:59.280Z,932.44
2017-08-30T03:25:27.415Z,932.42
2017-08-30T03:25:55.678Z,932.44
2017-08-30T03:26:23.832Z,932.43
2017-08-30T03:26:52.031Z,932.44
2017-08-30T03:27:20.241Z,932.42
2017-08-30T03:27:48.477Z,932.39
2017-08-30T03:28:16.537Z,932.37
2017-08-30T03:28:44.795Z,932.37
2017-08-30T03:29:13.021Z,932.34
2017-08-30T03:29:41.231Z,932.35
2017-08-30T03:30:09.396Z,932.34
2017-08-30T03:30:37.657Z,932.31
2017-08-30T03:31:05.803Z,932.31
2017-08-30T03:31:33.909Z,932.32
2017-08-30T03:32:02.031Z,932.31
2017-08-30T03:32:30.271Z,932.29
2017-08-30T03:32:58.384Z,932.3
2017-08-30T03:33:26.601Z,932.3
2017-08-30T03:33:54.825Z,932.31
2017-08-30T03:34:22.731Z,932.29
2017-08-30T03:34:51.001Z,932.3
2017-08-30T03:35:19.201Z,932.31
2017-08-30T03:35:47.299Z,932.28
2017-08-30T03:36:15.513Z,932.28
2017-08-30T03:36:43.855Z,932.25
2017-08-30T03:37:11.985Z,932.28
2017-08-30T03:37:40.158Z,932.29
2017-08-30T03:38:08.273Z,932.28
2017-08-30T03:38:36.580Z,932.31
2017-08-30T03:39:04.727Z,932.31
2017-08-30T03:39:32.983Z,932.29
2017-08-30T03:40:01.108Z,932.28
2017-08-30T03:40:29.367Z,932.29
2017-08-30T03:40:57.611Z,932.24
2017-08-30T03:41:25.648Z,932.26
2017-08-30T03:41:54.022Z,932.27
2017-08-30T03:42:22.271Z,932.28
2017-08-30T03:42:50.386Z,932.27
2017-08-30T03:43:18.647Z,932.27
2017-08-30T03:43:46.774Z,932.27
2017-08-30T03:44:14.915Z,932.25
2017-08-30T03:44:42.899Z,932.24
2017-08-30T03:45:11.083Z,932.24
2017-08-30T03:45:39.240Z,932.27
2017-08-30T03:46:07.561Z,932.23
2017-08-30T03:46:35.825Z,932.24
2017-08-30T03:47:04.165Z,932.26
2017-08-30T03:47:32.414Z,932.26
2017-08-30T03:48:00.551Z,932.26
2017-08-30T03:48:28.778Z,932.27
2017-08-30T03:48:56.983Z,932.27
2017-08-30T03:49:25.132Z,932.28
2017-08-30T03:49:53.301Z,932.28
2017-08-30T03:50:21.455Z,932.27
2017-08-30T03:50:49.581Z,932.28
2017-08-30T03:51:17.780Z,932.31
2017-08-30T03:51:45.886Z,932.3
2017-08-30T03:52:14.248Z,932.35
2017-08-30T03:52:42.402Z,932.33
2017-08-30T03:53:10.502Z,932.32
2017-08-30T03:53:38.732Z,932.29
2017-08-30T03:54:06.751Z,932.28
2017-08-30T03:54:34.845Z,932.28
2017-08-30T03:55:02.975Z,932.29
2017-08-30T03:55:31.220Z,932.26
2017-08-30T03:55:59.426Z,932.26
2017-08-30T03:56:27.635Z,932.22
2017-08-30T03:56:55.848Z,932.25
2017-08-30T03:57:24.179Z,932.25
2017-08-30T03:57:52.429Z,932.25
2017-08-30T03:58:20.541Z,932.25
2017-08-30T03:58:48.677Z,932.26
2017-08-30T03:59:16.897Z,932.25
2017-08-30T03:59:45.036Z,932.23
2017-08-30T04:00:13.172Z,932.22
2017-08-30T04:00:41.316Z,932.24
2017-08-30T04:01:09.555Z,932.21
2017-08-30T04:01:37.748Z,932.22
2017-08-30T04:02:06.040Z,932.18
2017-08-30T04:02:34.168Z,932.19
2017-08-30T04:03:02.224Z,932.22
2017-08-30T04:03:30.423Z,932.18
2017-08-30T04:03:58.643Z,932.19
2017-08-30T04:04:26.819Z,932.18
2017-08-30T04:04:54.911Z,932.19
2017-08-30T04:05:23.182Z,932.17
2017-08-30T04:05:51.358Z,932.17
2017-08-30T04:06:19.601Z,932.15
2017-08-30T04:06:47.770Z,932.15
2017-08-30T04:07:16.090Z,932.14
2017-08-30T04:07:44.340Z,932.14
2017-08-30T04:08:12.281Z,932.14
2017-08-30T04:08:40.426Z,932.11
2017-08-30T04:09:08.708Z,932.09
2017-08-30T04:09:36.823Z,932.1
2017-08-30T04:10:04.934Z,932.1
2017-08-30T04:10:33.183Z,932.1
2017-08-30T04:11:01.321Z,932.09
2017-08-30T04:11:29.582Z,932.07
2017-08-30T04:11:57.587Z,932.09
2017-08-30T04:12:25.795Z,932.1
2017-08-30T04:12:53.961Z,932.08
2017-08-30T04:13:22.056Z,932.08
2017-08-30T04:13:50.328Z,932.07
2017-08-30T04:14:18.465Z,932.04
2017-08-30T04:14:46.509Z,932.02
2017-08-30T04:15:14.637Z,932.01
2017-08-30T04:15:42.875Z,932.04
2017-08-30T04:16:11.124Z,932.04
2017-08-30T04:16:39.297Z,932.02
2017-08-30T04:17:07.539Z,932.02
2017-08-30T04:17:35.594Z,932.03
2017-08-30T04:18:03.751Z,932.03
2017-08-30T04:18:31.978Z,932.04
2017-08-30T04:19:00.258Z,932.04
2017-08-30T04:19:28.350Z,932.02
2017-08-30T04:19:56.392Z,932.03
2017-08-30T04:20:24.639Z,932.01
2017-08-30T04:20:52.844Z,932.05
2017-08-30T04:21:21.036Z,932.06
2017-08-30T04:21:49.313Z,932.03
2017-08-30T04:22:17.545Z,932
2017-08-30T04:22:45.844Z,932.03
2017-08-30T04:23:14.002Z,932.01
2017-08-30T04:23:42.108Z,932.01
2017-08-30T04:24:10.198Z,931.99
2017-08-30T04:24:38.368Z,932.01
2017-08-30T04:25:06.482Z,932
2017-08-30T04:25:34.540Z,931.99
2017-08-30T04:26:02.691Z,932
2017-08-30T04:26:30.814Z,931.95
2017-08-30T04:26:59.069Z,931.96
2017-08-30T04:27:27.302Z,931.96
2017-08-30T04:27:55.444Z,931.97
2017-08-30T04:28:23.559Z,931.96
2017-08-30T04:28:51.848Z,931.94
2017-08-30T04:29:20.115Z,931.94
2017-08-30T04:29:48.220Z,931.93
2017-08-30T04:30:16.415Z,931.94
2017-08-30T04:30:44.614Z,931.96
2017-08-30T04:31:12.881Z,931.93
2017-08-30T04:31:41.093Z,931.9
2017-08-30T04:32:09.204Z,931.88
2017-08-30T04:32:37.577Z,931.89
2017-08-30T04:33:05.839Z,931.89
2017-08-30T04:33:34.086Z,931.87
2017-08-30T04:34:02.218Z,931.88
2017-08-30T04:34:30.421Z,931.88
2017-08-30T04:34:58.659Z,931.9
2017-08-30T04:35:26.808Z,931.86
2017-08-30T04:35:54.844Z,931.87
2017-08-30T04:36:23.068Z,931.85
2017-08-30T04:36:51.092Z,931.87
2017-08-30T04:37:19.251Z,931.87
2017-08-30T04:37:47.546Z,931.84
2017-08-30T04:38:15.773Z,931.84
2017-08-30T04:38:44.017Z,931.85
2017-08-30T04:39:12.203Z,931.82
2017-08-30T04:39:40.400Z,931.86
2017-08-30T04:40:08.539Z,931.86
2017-08-30T04:40:36.818Z,931.83
2017-08-30T04:41:05.094Z,931.82
2017-08-30T04:41:33.359Z,931.81
2017-08-30T04:42:01.520Z,931.77
2017-08-30T04:42:29.615Z,931.79
2017-08-30T04:42:57.919Z,931.83
2017-08-30T04:43:26.082Z,931.8
2017-08-30T04:43:54.318Z,931.8
2017-08-30T04:44:22.477Z,931.78
2017-08-30T04:44:50.516Z,931.76
2017-08-30T04:45:18.618Z,931.73
2017-08-30T04:45:46.775Z,931.76
2017-08-30T04:46:14.824Z,931.76
2017-08-30T04:46:43.043Z,931.77
2017-08-30T04:47:11.295Z,931.77
2017-08-30T04:47:39.419Z,931.77
2017-08-30T04:48:07.649Z,931.75
2017-08-30T04:48:35.630Z,931.73
2017-08-30T04:49:03.766Z,931.76
2017-08-30T04:49:31.999Z,931.73
2017-08-30T04:50:00.161Z,931.72
2017-08-30T04:50:28.436Z,931.74
2017-08-30T04:50:56.469Z,931.76
2017-08-30T04:51:24.494Z,931.76
2017-08-30T04:51:52.661Z,931.73
2017-08-30T04:52:20.892Z,931.74
2017-08-30T04:52:49.268Z,931.73
2017-08-30T04:53:17.418Z,931.77
2017-08-30T04:53:45.644Z,931.79
2017-08-30T04:54:13.783Z,931.77
2017-08-30T04:54:41.922Z,931.72
2017-08-30T04:55:10.056Z,931.76
2017-08-30T04:55:37.976Z,931.74
2017-08-30T04:56:06.207Z,931.73
2017-08-30T04:56:34.458Z,931.74
2017-08-30T04:57:02.608Z,931.75
2017-08-30T04:57:30.906Z,931.73
2017-08-30T04:57:59.174Z,931.76
2017-08-30T04:58:27.420Z,931.71
2017-08-30T04:58:55.533Z,931.73
2017-08-30T04:59:23.837Z,931.73
2017-08-30T04:59:52.063Z,931.69
2017-08-30T05:00:20.181Z,931.69
2017-08-30T05:00:48.398Z,931.72
2017-08-30T05:01:16.547Z,931.72
2017-08-30T05:01:44.704Z,931.7
2017-08-30T05:02:12.927Z,931.7
2017-08-30T05:02:41.170Z,931.69
2017-08-30T05:03:09.485Z,931.7
2017-08-30T05:03:37.677Z,931.68
2017-08-30T05:04:05.901Z,931.67
2017-08-30T05:04:34.089Z,931.67
2017-08-30T05:05:02.147Z,931.7
2017-08-30T05:05:30.284Z,931.7
2017-08-30T05:05:58.441Z,931.67
2017-08-30T05:06:26.697Z,931.66
2017-08-30T05:06:54.926Z,931.66
2017-08-30T05:07:23.175Z,931.66
2017-08-30T05:07:51.423Z,931.68
2017-08-30T05:08:19.571Z,931.66
2017-08-30T05:08:47.707Z,931.67
2017-08-30T05:09:15.744Z,931.69
2017-08-30T05:09:43.867Z,931.67
2017-08-30T05:10:11.989Z,931.67
2017-08-30T05:10:40.146Z,931.69
2017-08-30T05:11:08.077Z,931.66
2017-08-30T05:11:36.282Z,931.66
2017-08-30T05:12:04.316Z,931.66
2017-08-30T05:12:32.369Z,931.64
2017-08-30T05:13:00.513Z,931.65
2017-08-30T05:13:28.860Z,931.64
2017-08-30T05:13:57.124Z,931.63
2017-08-30T05:14:25.279Z,931.57
2017-08-30T05:14:53.426Z,931.63
2017-08-30T05:15:21.506Z,931.58
2017-08-30T05:15:49.642Z,931.59
2017-08-30T05:16:17.748Z,931.59
2017-08-30T05:16:45.861Z,931.63
2017-08-30T05:17:13.905Z,931.59
2017-08-30T05:17:42.152Z,931.59
2017-08-30T05:18:10.519Z,931.62
2017-08-30T05:18:38.768Z,931.57
2017-08-30T05:19:06.933Z,931.56
2017-08-30T05:19:35.171Z,931.56
2017-08-30T05:20:03.300Z,931.59
2017-08-30T05:20:31.486Z,931.57
2017-08-30T05:20:59.596Z,931.58
2017-08-30T05:21:27.821Z,931.59
2017-08-30T05:21:56.090Z,931.58
2017-08-30T05:22:24.241Z,931.61
2017-08-30T05:22:52.368Z,931.57
2017-08-30T05:23:20.707Z,931.59
2017-08-30T05:23:48.877Z,931.6
2017-08-30T05:24:16.992Z,931.59
2017-08-30T05:24:45.210Z,931.52
2017-08-30T05:25:13.453Z,931.54
2017-08-30T05:25:41.678Z,931.57
2017-08-30T05:26:09.731Z,931.54
2017-08-30T05:26:37.882Z,931.53
2017-08-30T05:27:06.165Z,931.51
2017-08-30T05:27:34.336Z,931.54
2017-08-30T05:28:02.437Z,931.53
2017-08-30T05:28:30.645Z,931.52
2017-08-30T05:28:58.899Z,931.53
2017-08-30T05:29:27.174Z,931.52
2017-08-30T05:29:55.303Z,931.53
2017-08-30T05:30:23.678Z,931.54
2017-08-30T05:30:51.923Z,931.51
2017-08-30T05:31:20.016Z,931.56
2017-08-30T05:31:48.240Z,931.52
2017-08-30T05:32:16.478Z,931.54
2017-08-30T05:32:44.718Z,931.5
2017-08-30T05:33:12.948Z,931.5
2017-08-30T05:33:40.918Z,931.5
2017-08-30T05:34:09.165Z,931.5
2017-08-30T05:34:37.451Z,931.51
2017-08-30T05:35:05.560Z,931.53
2017-08-30T05:35:33.687Z,931.5
2017-08-30T05:36:01.807Z,931.47
2017-08-30T05:36:30.031Z,931.5
2017-08-30T05:36:58.165Z,931.46
2017-08-30T05:37:26.194Z,931.48
2017-08-30T05:37:54.267Z,931.51
2017-08-30T05:38:22.489Z,931.51
2017-08-30T05:38:50.849Z,931.5
2017-08-30T05:39:19.125Z,931.48
2017-08-30T05:39:47.202Z,931.5
2017-08-30T05:40:15.325Z,931.52
2017-08-30T05:40:43.577Z,931.5
2017-08-30T05:41:11.707Z,931.45
2017-08-30T05:41:39.843Z,931.51
2017-08-30T05:42:07.963Z,931.51
2017-08-30T05:42:36.183Z,931.49
2017-08-30T05:43:04.349Z,931.5
2017-08-30T05:43:32.619Z,931.49
2017-08-30T05:44:00.933Z,931.48
2017-08-30T05:44:29.157Z,931.52
2017-08-30T05:44:57.299Z,931.48
2017-08-30T05:45:25.469Z,931.48
2017-08-30T05:45:53.605Z,931.49
2017-08-30T05:46:21.847Z,931.5
2017-08-30T05:46:49.827Z,931.44
2017-08-30T05:47:18.022Z,931.48
2017-08-30T05:47:46.245Z,931.48
2017-08-30T05:48:14.302Z,931.48
2017-08-30T05:48:42.602Z,931.46
2017-08-30T05:49:10.705Z,931.46
2017-08-30T05:49:38.835Z,931.48
2017-08-30T05:50:07.087Z,931.47
2017-08-30T05:50:35.337Z,931.47
2017-08-30T05:51:03.430Z,931.47
2017-08-30T05:51:31.597Z,931.48
2017-08-30T05:51:59.837Z,931.45
2017-08-30T05:52:28.142Z,931.47
2017-08-30T05:52:56.374Z,931.45